Time;durP1;ratioP1;P1;durP2;ratioP2;P2;SDS_P1;SDS_P2;PMS_P1;PMS_P2;Temp;Humidity;BMP_temperature;BMP_pressure;BME280_temperature;BME280_humidity;BME280_pressure;Samples;Min_cycle;Max_cycle;Signal;HPM_P1;HPM_P2
2022/07/01 00:00:46;;;;;;;;;0.00;0.00;;;;;17.62;61.28;101311.38;4992627;28;45506;-86
2022/07/01 00:03:11;;;;;;;;;0.33;0.00;;;;;17.66;62.00;101319.16;4986067;28;45365;-86
2022/07/01 00:05:36;;;;;;;;;0.00;0.00;;;;;17.85;61.54;101347.66;4993680;28;45539;-86
2022/07/01 00:08:02;;;;;;;;;0.00;0.00;;;;;17.46;61.71;101282.69;4995009;28;45654;-86
2022/07/01 00:10:27;;;;;;;;;1.00;1.00;;;;;17.07;61.87;101216.94;4990670;28;45479;-86
2022/07/01 00:12:52;;;;;;;;;0.00;0.00;;;;;17.64;62.17;101306.75;4994738;28;45779;-87
2022/07/01 00:15:18;;;;;;;;;2.00;1.00;;;;;17.86;61.86;101349.38;4985633;28;45495;-87
2022/07/01 00:17:43;;;;;;;;;0.00;0.00;;;;;17.62;62.29;101305.97;4975815;28;47550;-86
2022/07/01 00:20:10;;;;;;;;;1.33;0.67;;;;;17.80;62.35;101345.25;4996114;28;45517;-86
2022/07/01 00:22:36;;;;;;;;;1.00;1.00;;;;;17.76;62.22;101341.00;4993110;28;45436;-86
2022/07/01 00:25:01;;;;;;;;;1.67;1.00;;;;;17.70;62.37;101336.88;4976846;28;45532;-86
2022/07/01 00:27:26;;;;;;;;;1.00;1.00;;;;;17.85;62.28;101353.06;4991223;28;46448;-86
2022/07/01 00:29:52;;;;;;;;;1.00;1.00;;;;;17.84;61.96;101360.28;4990893;28;45549;-86
2022/07/01 00:32:17;;;;;;;;;0.67;0.67;;;;;17.54;62.91;101308.31;4992398;28;45831;-87
2022/07/01 00:34:43;;;;;;;;;3.00;1.00;;;;;17.59;62.05;101328.59;4994105;28;45567;-86
2022/07/01 00:37:11;;;;;;;;;2.00;0.67;;;;;17.82;62.95;101359.53;4990418;28;47156;-87
2022/07/01 00:39:36;;;;;;;;;1.00;1.00;;;;;17.82;62.73;101362.22;4989045;28;45700;-86
2022/07/01 00:42:04;;;;;;;;;0.67;0.67;;;;;17.52;63.00;101311.94;4983113;28;45806;-86
2022/07/01 00:44:30;;;;;;;;;2.00;1.00;;;;;17.64;62.61;101333.69;4989171;28;45478;-86
2022/07/01 00:46:58;;;;;;;;;1.00;1.00;;;;;16.84;62.75;101207.59;4991371;28;47423;-86
2022/07/01 00:49:25;;;;;;;;;1.00;1.00;;;;;17.79;62.84;101372.28;4993237;28;45391;-86
2022/07/01 00:51:51;;;;;;;;;0.00;0.00;;;;;17.75;62.95;101376.13;4989481;28;45406;-87
2022/07/01 00:54:17;;;;;;;;;1.00;1.00;;;;;17.25;63.20;101309.16;4987714;28;45602;-86
2022/07/01 00:56:42;;;;;;;;;1.00;1.00;;;;;17.57;63.16;101368.28;4992862;28;46452;-87
2022/07/01 00:59:07;;;;;;;;;0.00;0.00;;;;;17.49;63.22;101357.97;4990341;28;45547;-87
2022/07/01 01:01:33;;;;;;;;;1.00;1.00;;;;;17.55;63.17;101377.41;4989972;28;45411;-86
2022/07/01 01:03:59;;;;;;;;;1.00;1.00;;;;;17.24;63.16;101322.75;4985949;28;45685;-86
2022/07/01 01:06:24;;;;;;;;;0.00;0.00;;;;;17.55;63.24;101386.38;4987066;28;45452;-85
2022/07/01 01:08:50;;;;;;;;;2.00;2.00;;;;;17.57;62.94;101391.66;4992885;28;45454;-86
2022/07/01 01:11:17;;;;;;;;;3.00;2.00;;;;;17.56;63.46;101390.81;4992064;28;45379;-86
2022/07/01 01:13:42;;;;;;;;;0.00;0.00;;;;;17.30;63.61;101351.97;4987943;28;45693;-87
2022/07/01 01:16:08;;;;;;;;;0.67;0.67;;;;;17.52;63.45;101394.66;4989317;28;46166;-86
2022/07/01 01:18:34;;;;;;;;;2.33;1.00;;;;;17.49;63.27;101395.72;4972864;28;45453;-86
2022/07/01 01:20:59;;;;;;;;;0.00;0.00;;;;;17.47;63.34;101397.63;4991743;28;45546;-87
2022/07/01 01:23:25;;;;;;;;;1.33;0.00;;;;;17.46;63.63;101398.56;4996082;28;45430;-87
2022/07/01 01:25:51;;;;;;;;;1.00;1.00;;;;;17.44;63.66;101400.53;4987699;28;45479;-87
2022/07/01 01:28:16;;;;;;;;;1.00;0.00;;;;;17.40;63.59;101396.28;4986575;28;45610;-86
2022/07/01 01:30:42;;;;;;;;;1.00;1.00;;;;;17.22;64.35;101371.31;4989179;28;45566;-86
2022/07/01 01:33:11;;;;;;;;;1.00;1.00;;;;;17.22;64.10;101384.78;4985258;28;45562;-86
2022/07/01 01:35:37;;;;;;;;;1.33;1.33;;;;;17.35;64.16;101409.19;4988973;28;46192;-87
2022/07/01 01:38:02;;;;;;;;;2.67;1.33;;;;;17.34;64.63;101407.44;4975608;28;45509;-86
2022/07/01 01:43:16;;;;;;;;;1.00;1.00;;;;;17.07;64.50;101385.75;5871402;22;46222;-81
2022/07/01 01:45:41;;;;;;;;;1.00;1.00;;;;;17.18;64.34;101407.50;5192703;22;45747;-83
2022/07/01 01:48:06;;;;;;;;;1.33;1.00;;;;;16.97;65.02;101376.47;5010494;28;45599;-82
2022/07/01 01:50:32;;;;;;;;;1.33;1.33;;;;;16.98;64.69;101392.56;4994638;28;45341;-83
2022/07/01 01:52:57;;;;;;;;;0.00;0.00;;;;;17.19;64.57;101424.53;4999088;28;45338;-82
2022/07/01 01:55:22;;;;;;;;;1.67;1.00;;;;;17.16;64.53;101422.00;5013233;28;45966;-82
2022/07/01 01:57:48;;;;;;;;;2.00;1.00;;;;;17.03;64.83;101403.91;5016728;28;45451;-83
2022/07/01 02:00:13;;;;;;;;;1.67;1.00;;;;;17.11;64.75;101430.38;5016642;28;45479;-83
2022/07/01 02:02:39;;;;;;;;;2.33;2.33;;;;;17.03;65.04;101413.81;5015949;28;45591;-82
2022/07/01 02:05:07;;;;;;;;;3.00;2.00;;;;;17.06;65.19;101427.97;5013672;28;46031;-83
2022/07/01 02:07:33;;;;;;;;;2.00;2.00;;;;;16.93;64.98;101410.81;5010505;28;45438;-82
2022/07/01 02:09:58;;;;;;;;;1.00;1.00;;;;;17.03;65.09;101433.53;5006710;28;45390;-82
2022/07/01 02:12:23;;;;;;;;;3.67;3.00;;;;;17.02;65.38;101433.63;5016902;28;45656;-83
2022/07/01 02:14:49;;;;;;;;;0.00;0.00;;;;;16.94;65.16;101428.69;5016254;28;46101;-83
2022/07/01 02:17:14;;;;;;;;;2.00;2.00;;;;;17.00;65.22;101436.44;4998164;28;45974;-84
2022/07/01 02:19:39;;;;;;;;;2.00;0.00;;;;;16.99;65.09;101436.50;5016186;28;45453;-83
2022/07/01 02:22:04;;;;;;;;;2.00;2.00;;;;;16.67;65.25;101377.34;5011385;28;45549;-82
2022/07/01 02:24:30;;;;;;;;;2.00;2.00;;;;;16.96;65.35;101437.56;5015106;28;46118;-83
2022/07/01 02:26:55;;;;;;;;;1.33;1.33;;;;;16.85;65.05;101422.03;5015714;28;45460;-83
2022/07/01 02:29:21;;;;;;;;;1.00;1.00;;;;;16.77;65.38;101408.13;5016393;28;45433;-83
2022/07/01 02:31:46;;;;;;;;;2.00;2.00;;;;;16.68;65.36;101400.59;5005809;28;45402;-83
2022/07/01 02:34:11;;;;;;;;;1.33;1.33;;;;;16.73;65.65;101411.94;5016108;28;46097;-84
2022/07/01 02:36:37;;;;;;;;;1.50;1.50;;;;;16.88;65.51;101439.84;5016422;28;45448;-83
2022/07/01 02:39:02;;;;;;;;;1.00;1.00;;;;;16.86;65.64;101441.75;5015844;28;45451;-83
2022/07/01 02:41:28;;;;;;;;;3.00;1.00;;;;;16.85;65.75;101445.41;5016832;28;45424;-83
2022/07/01 02:43:53;;;;;;;;;3.00;3.00;;;;;16.64;65.69;101413.34;5016008;28;46305;-83
2022/07/01 02:46:18;;;;;;;;;2.00;2.00;;;;;16.77;65.42;101445.81;5012602;28;45448;-83
2022/07/01 02:48:44;;;;;;;;;2.00;2.00;;;;;16.77;65.37;101439.56;5007509;28;45486;-84
2022/07/01 02:51:09;;;;;;;;;2.33;2.33;;;;;16.80;65.42;101456.44;4998903;28;45359;-83
2022/07/01 02:53:34;;;;;;;;;2.00;2.00;;;;;16.79;65.78;101454.72;5016193;28;45357;-83
2022/07/01 02:56:00;;;;;;;;;3.00;3.00;;;;;16.52;65.75;101411.38;5015581;28;45677;-82
2022/07/01 02:58:25;;;;;;;;;2.67;2.67;;;;;16.76;65.66;101452.16;5016276;28;45396;-83
2022/07/01 03:00:52;;;;;;;;;2.00;2.00;;;;;16.60;65.68;101430.66;5015873;28;45354;-82
2022/07/01 03:03:18;;;;;;;;;2.00;2.00;;;;;16.64;65.81;101437.56;5015255;28;46250;-82
2022/07/01 03:05:43;;;;;;;;;3.00;2.00;;;;;16.72;65.89;101456.00;5015630;28;45396;-83
2022/07/01 03:08:09;;;;;;;;;2.00;2.00;;;;;16.60;65.96;101435.16;5015773;28;45658;-82
2022/07/01 03:10:34;;;;;;;;;4.00;4.00;;;;;16.52;65.79;101419.47;5016020;28;45560;-82
2022/07/01 03:13:01;;;;;;;;;2.00;2.00;;;;;16.49;65.76;101414.25;5015384;28;46937;-83
2022/07/01 03:15:27;;;;;;;;;1.33;1.33;;;;;16.71;65.63;101456.94;5015315;28;45423;-82
2022/07/01 03:17:52;;;;;;;;;3.00;2.67;;;;;16.71;65.79;101466.84;5015713;28;45453;-83
2022/07/01 03:20:17;;;;;;;;;2.00;2.00;;;;;16.53;65.47;101437.34;5015902;28;45557;-83
2022/07/01 03:22:45;;;;;;;;;1.00;1.00;;;;;16.33;65.54;101403.50;5015469;28;47389;-83
2022/07/01 03:25:11;;;;;;;;;1.00;1.00;;;;;16.57;65.63;101440.72;5015491;28;45425;-82
2022/07/01 03:27:36;;;;;;;;;1.00;1.00;;;;;16.66;65.43;101464.41;5015496;28;45434;-82
2022/07/01 03:30:04;;;;;;;;;3.00;1.67;;;;;16.67;65.72;101474.25;5015436;28;45370;-83
2022/07/01 03:32:29;;;;;;;;;0.33;0.33;;;;;16.49;65.54;101440.31;5015233;28;46263;-83
2022/07/01 03:34:54;;;;;;;;;3.00;1.33;;;;;16.51;65.67;101444.66;5015027;28;46987;-83
2022/07/01 03:37:21;;;;;;;;;2.00;1.00;;;;;16.65;65.33;101474.31;5015230;28;45410;-83
2022/07/01 03:39:47;;;;;;;;;2.00;2.00;;;;;16.64;65.49;101486.03;5015773;28;45569;-82
2022/07/01 03:42:13;;;;;;;;;1.33;1.33;;;;;16.64;65.25;101490.53;5014594;28;46343;-82
2022/07/01 03:44:39;;;;;;;;;2.67;2.00;;;;;16.59;65.23;101480.03;5014894;28;45418;-82
2022/07/01 03:47:08;;;;;;;;;1.00;1.00;;;;;16.10;65.64;101398.56;5007301;28;45391;-82
2022/07/01 03:49:34;;;;;;;;;1.00;1.00;;;;;16.39;65.46;101446.22;5002058;28;45366;-84
2022/07/01 03:52:00;;;;;;;;;0.33;0.33;;;;;16.64;65.46;101487.84;5017308;28;46307;-82
2022/07/01 03:54:37;;;;;;;;;1.00;1.00;;;;;16.50;65.68;101474.31;5018516;28;45673;-82
2022/07/01 03:57:08;;;;;;;;;1.67;1.00;;;;;16.47;65.39;101472.69;5018159;28;45613;-83
2022/07/01 03:59:36;;;;;;;;;1.00;1.00;;;;;16.62;65.46;101506.81;5018797;28;45308;-82
2022/07/01 04:02:03;;;;;;;;;1.00;1.00;;;;;16.41;65.37;101473.00;5018116;28;46393;-83
2022/07/01 04:04:28;;;;;;;;;1.00;1.00;;;;;16.61;65.15;101506.88;5018158;28;45452;-83
2022/07/01 04:06:56;;;;;;;;;0.00;0.00;;;;;16.48;64.41;101482.47;5018506;28;45753;-83
2022/07/01 04:09:23;;;;;;;;;1.67;1.67;;;;;16.54;64.83;101513.56;5018567;28;45447;-82
2022/07/01 04:11:49;;;;;;;;;0.67;0.67;;;;;16.60;64.50;101502.44;5017714;28;47173;-83
2022/07/01 04:14:15;;;;;;;;;1.00;1.00;;;;;16.60;64.47;101513.19;5018207;28;45362;-82
2022/07/01 04:16:41;;;;;;;;;4.00;1.00;;;;;16.55;64.50;101496.44;5018063;28;45322;-82
2022/07/01 04:19:09;;;;;;;;;0.67;0.67;;;;;16.54;64.45;101503.66;5018541;28;45466;-82
2022/07/01 04:24:18;;;;;;;;;1.33;1.33;;;;;16.46;63.98;101501.41;5018138;28;45487;-82
2022/07/01 04:26:44;;;;;;;;;0.00;0.00;;;;;16.26;64.29;101469.38;5017790;28;45705;-83
2022/07/01 04:29:10;;;;;;;;;0.67;0.67;;;;;16.36;63.87;101489.41;5018680;28;45399;-82
2022/07/01 04:31:37;;;;;;;;;0.67;0.67;;;;;16.53;63.99;101519.88;5017903;28;45485;-82
2022/07/01 04:34:03;;;;;;;;;0.33;0.33;;;;;16.52;64.17;101521.72;5001170;28;45448;-83
2022/07/01 04:36:29;;;;;;;;;0.33;0.33;;;;;16.46;64.24;101514.88;5018262;28;45394;-82
2022/07/01 04:38:54;;;;;;;;;1.00;0.33;;;;;16.27;64.43;101489.06;5018135;28;45402;-83
2022/07/01 04:44:04;;;;;;;;;1.00;1.00;;;;;16.49;63.97;101524.59;5017493;28;45426;-83
2022/07/01 04:46:29;;;;;;;;;0.00;0.00;;;;;16.11;63.94;101468.41;5014708;28;45494;-83
2022/07/01 04:48:55;;;;;;;;;1.00;1.00;;;;;16.44;64.06;101530.22;5013021;28;45460;-83
2022/07/01 04:51:20;;;;;;;;;0.00;0.00;;;;;16.43;64.47;101527.63;5017590;28;46260;-83
2022/07/01 04:53:46;;;;;;;;;0.33;0.33;;;;;16.24;64.25;101493.66;5017867;28;45680;-83
2022/07/01 04:56:12;;;;;;;;;1.00;1.00;;;;;16.32;64.33;101514.78;5016132;28;45635;-82
2022/07/01 04:58:37;;;;;;;;;1.00;1.00;;;;;16.31;64.35;101510.34;5014905;28;45524;-82
2022/07/01 05:01:02;;;;;;;;;2.00;1.00;;;;;16.43;64.27;101536.53;5015673;28;47317;-82
2022/07/01 05:03:28;;;;;;;;;1.00;1.00;;;;;16.32;63.92;101516.56;4998988;28;45490;-82
2022/07/01 05:05:53;;;;;;;;;5.33;3.00;;;;;16.44;63.94;101537.44;5016568;28;45414;-82
2022/07/01 05:08:18;;;;;;;;;22.00;19.33;;;;;16.48;63.89;101551.56;5003313;28;45466;-80
2022/07/01 05:10:44;;;;;;;;;3.00;3.00;;;;;16.45;64.20;101547.22;5015994;28;45510;-80
2022/07/01 05:13:09;;;;;;;;;3.00;1.00;;;;;16.50;64.15;101555.91;5016535;28;45527;-81
2022/07/01 05:15:34;;;;;;;;;2.00;2.00;;;;;16.52;63.79;101556.72;5016870;28;46569;-81
2022/07/01 05:23:28;;;;;;;;;1.67;0.33;;;;;16.37;63.63;101522.59;5016388;28;45773;-80
2022/07/01 05:25:53;;;;;;;;;0.67;0.67;;;;;16.48;63.22;101538.13;5016265;28;45498;-81
2022/07/01 05:28:18;;;;;;;;;1.00;1.00;;;;;16.55;63.36;101548.47;5016579;28;45784;-81
2022/07/01 05:30:44;;;;;;;;;1.00;1.00;;;;;16.57;63.62;101545.69;5006229;28;45989;-80
2022/07/01 05:33:10;;;;;;;;;1.00;1.00;;;;;16.60;63.08;101548.19;5016327;28;45507;-79
2022/07/01 05:35:35;;;;;;;;;2.33;1.00;;;;;16.66;63.15;101554.09;5016394;28;45460;-80
2022/07/01 05:38:01;;;;;;;;;2.00;0.00;;;;;16.71;63.39;101550.28;5016512;28;45460;-79
2022/07/01 05:40:26;;;;;;;;;4.00;1.00;;;;;16.53;62.81;101511.81;5015636;28;47234;-80
2022/07/01 05:42:52;;;;;;;;;2.33;2.33;;;;;16.71;62.97;101542.22;5016243;28;45404;-80
2022/07/01 05:45:17;;;;;;;;;2.33;1.00;;;;;16.80;63.23;101553.34;5016213;28;45549;-80
2022/07/01 05:47:43;;;;;;;;;0.00;0.00;;;;;16.68;62.93;101530.66;5008307;28;45304;-80
2022/07/01 05:50:08;;;;;;;;;0.00;0.00;;;;;16.89;62.70;101568.13;5016113;28;46099;-80
2022/07/01 05:52:34;;;;;;;;;0.00;0.00;;;;;16.93;62.41;101564.31;5016228;28;45360;-81
2022/07/01 05:54:59;;;;;;;;;2.33;1.00;;;;;16.98;62.50;101558.66;5015716;28;45331;-80
2022/07/01 05:57:24;;;;;;;;;1.67;1.67;;;;;16.96;62.38;101557.88;5016167;28;45511;-79
2022/07/01 05:59:50;;;;;;;;;1.33;1.33;;;;;16.99;62.23;101553.16;5016024;28;46148;-80
2022/07/01 06:02:15;;;;;;;;;0.00;0.00;;;;;16.82;62.00;101520.97;5016114;28;45374;-82
2022/07/01 06:04:43;;;;;;;;;0.00;0.00;;;;;17.02;61.26;101557.50;5015818;28;45406;-81
2022/07/01 06:07:08;;;;;;;;;0.00;0.00;;;;;16.82;61.30;101520.97;5016137;28;45433;-80
2022/07/01 06:09:34;;;;;;;;;0.67;0.67;;;;;17.10;61.46;101566.03;5015653;28;46304;-81
2022/07/01 06:11:59;;;;;;;;;2.00;1.00;;;;;17.02;61.40;101554.81;5015522;28;45370;-82
2022/07/01 06:14:27;;;;;;;;;0.33;0.33;;;;;17.02;61.18;101542.25;4997294;28;45370;-80
2022/07/01 06:16:52;;;;;;;;;1.67;1.00;;;;;17.12;60.72;101558.72;5015775;28;45374;-82
2022/07/01 06:19:19;;;;;;;;;0.33;0.33;;;;;17.25;61.13;101575.03;4997772;28;46236;-83
2022/07/01 06:21:44;;;;;;;;;1.00;1.00;;;;;17.30;61.29;101575.63;5015298;28;45347;-83
2022/07/01 06:24:10;;;;;;;;;1.00;1.00;;;;;17.34;61.05;101579.88;5015643;28;45374;-83
2022/07/01 06:26:35;;;;;;;;;3.00;1.00;;;;;17.35;60.13;101562.78;5016321;28;45580;-82
2022/07/01 06:29:00;;;;;;;;;0.33;0.00;;;;;17.43;60.29;101579.34;5015482;28;46174;-82
2022/07/01 06:31:26;;;;;;;;;1.00;1.00;;;;;17.49;59.78;101570.03;5015375;28;55159;-83
2022/07/01 06:33:51;;;;;;;;;1.00;1.00;;;;;17.52;59.91;101577.94;5015701;28;45367;-82
2022/07/01 06:36:16;;;;;;;;;0.00;0.00;;;;;17.52;59.08;101578.81;5015517;28;45471;-80
2022/07/01 06:38:42;;;;;;;;;1.00;1.00;;;;;17.36;59.70;101542.94;5015328;28;46163;-81
2022/07/01 06:43:51;;;;;;;;;0.67;0.00;;;;;17.73;59.02;101597.34;5015434;28;45423;-83
2022/07/01 06:46:16;;;;;;;;;2.33;1.00;;;;;17.62;59.49;101576.41;5014420;28;45449;-83
2022/07/01 06:48:41;;;;;;;;;2.00;1.00;;;;;17.79;58.80;101585.31;5008615;28;46374;-83
2022/07/01 06:51:06;;;;;;;;;0.67;0.67;;;;;17.58;58.83;101549.72;5014878;28;45482;-84
2022/07/01 06:53:32;;;;;;;;;2.00;0.67;;;;;17.90;58.05;101593.66;5015870;28;45411;-83
2022/07/01 06:55:57;;;;;;;;;0.33;0.33;;;;;17.93;58.36;101593.47;4997476;28;45485;-80
2022/07/01 06:58:22;;;;;;;;;0.67;0.67;;;;;17.98;58.32;101595.88;5015362;28;46080;-83
2022/07/01 07:00:48;;;;;;;;;3.33;1.67;;;;;18.06;58.84;101596.28;5014904;28;45473;-82
2022/07/01 07:03:14;;;;;;;;;2.67;0.33;;;;;18.07;57.91;101587.22;5015310;28;45680;-85
2022/07/01 07:05:39;;;;;;;;;0.67;0.67;;;;;18.17;58.08;101596.50;5015253;28;45559;-82
2022/07/01 07:08:04;;;;;;;;;0.67;0.67;;;;;18.06;57.48;101564.78;5015184;28;45560;-81
2022/07/01 07:10:30;;;;;;;;;0.00;0.00;;;;;18.22;56.77;101588.13;5015320;28;45378;-82
2022/07/01 07:12:56;;;;;;;;;0.00;0.00;;;;;18.30;57.16;101600.16;5014926;28;45435;-82
2022/07/01 07:15:21;;;;;;;;;0.00;0.00;;;;;18.36;57.03;101601.63;5015639;28;45449;-83
2022/07/01 07:17:46;;;;;;;;;0.67;0.00;;;;;18.42;56.36;101590.41;5015099;28;46486;-83
2022/07/01 07:20:12;;;;;;;;;3.00;1.00;;;;;18.19;56.49;101550.50;5014662;28;45472;-82
2022/07/01 07:22:37;;;;;;;;;0.00;0.00;;;;;18.52;56.13;101588.88;5015222;28;45329;-82
2022/07/01 07:25:02;;;;;;;;;2.33;1.00;;;;;18.61;56.61;101595.50;5014884;28;45777;-82
2022/07/01 07:27:28;;;;;;;;;9.33;6.00;;;;;18.67;55.63;101589.72;5018079;28;46040;-81
2022/07/01 07:29:53;;;;;;;;;0.33;0.00;;;;;18.73;55.71;101589.34;5017553;28;45481;-82
2022/07/01 07:32:19;;;;;;;;;0.00;0.00;;;;;18.63;55.43;101558.47;5018596;28;45483;-82
2022/07/01 07:34:44;;;;;;;;;0.00;0.00;;;;;18.53;55.39;101533.06;5018316;28;45372;-81
2022/07/01 07:37:09;;;;;;;;;0.00;0.00;;;;;18.84;54.86;101561.66;5018348;28;47040;-81
2022/07/01 07:39:35;;;;;;;;;0.00;0.00;;;;;18.76;54.46;101545.06;5019541;28;45342;-81
2022/07/01 07:42:01;;;;;;;;;1.00;1.00;;;;;19.01;53.36;101584.00;5018799;28;45393;-82
2022/07/01 07:44:27;;;;;;;;;0.00;0.00;;;;;19.06;53.05;101579.16;5018327;28;45745;-82
2022/07/01 07:46:52;;;;;;;;;0.33;0.33;;;;;19.06;52.76;101576.44;5018188;28;45441;-83
2022/07/01 07:49:18;;;;;;;;;20.67;18.67;;;;;19.11;53.02;101572.47;5017845;28;45545;-82
2022/07/01 07:51:43;;;;;;;;;1.67;0.67;;;;;19.13;52.10;101567.00;5014093;28;45413;-82
2022/07/01 07:54:08;;;;;;;;;0.00;0.00;;;;;19.29;52.57;101583.03;5015807;28;45548;-82
2022/07/01 07:56:34;;;;;;;;;1.00;1.00;;;;;19.34;51.30;101576.34;5017848;28;45840;-83
2022/07/01 07:58:59;;;;;;;;;0.00;0.00;;;;;19.40;51.54;101584.03;5017489;28;45469;-82
2022/07/01 08:01:25;;;;;;;;;0.33;0.33;;;;;19.43;50.98;101571.28;5015190;28;46435;-82
2022/07/01 08:03:51;;;;;;;;;0.00;0.00;;;;;19.45;50.83;101572.06;5017772;28;45426;-82
2022/07/01 08:06:17;;;;;;;;;0.67;0.00;;;;;19.52;49.80;101566.09;5017504;28;45458;-82
2022/07/01 08:08:42;;;;;;;;;0.00;0.00;;;;;19.47;48.71;101554.75;5017126;28;45426;-82
2022/07/01 08:11:08;;;;;;;;;0.00;0.00;;;;;19.59;47.55;101569.25;5017205;28;45453;-83
2022/07/01 08:13:33;;;;;;;;;0.00;0.00;;;;;19.71;47.51;101590.09;5017524;28;45458;-82
2022/07/01 08:15:59;;;;;;;;;0.00;0.00;;;;;19.66;47.71;101580.53;4999489;28;47177;-84
2022/07/01 08:18:25;;;;;;;;;1.00;0.00;;;;;19.73;47.20;101573.75;5015497;28;45454;-81
2022/07/01 08:20:53;;;;;;;;;0.00;0.00;;;;;19.65;47.33;101554.47;5017436;28;45310;-83
2022/07/01 08:23:19;;;;;;;;;0.67;0.00;;;;;19.84;46.59;101581.16;5011851;28;45470;-82
2022/07/01 08:25:45;;;;;;;;;0.33;0.33;;;;;20.03;46.78;101605.94;5014161;28;46224;-83
2022/07/01 08:28:11;;;;;;;;;1.00;0.00;;;;;20.12;46.47;101596.31;5015206;28;45538;-82
2022/07/01 08:30:36;;;;;;;;;0.00;0.00;;;;;20.02;46.69;101563.63;5019412;28;45422;-83
2022/07/01 08:33:02;;;;;;;;;0.00;0.00;;;;;20.08;46.28;101562.31;5016941;28;45526;-82
2022/07/01 08:35:28;;;;;;;;;1.33;0.33;;;;;20.47;46.75;101601.94;5017218;28;45364;-82
2022/07/01 08:37:54;;;;;;;;;0.00;0.00;;;;;20.11;46.32;101526.91;5016862;28;45511;-83
2022/07/01 08:40:24;;;;;;;;;0.00;0.00;;;;;20.71;44.37;101606.59;5017250;28;45410;-82
2022/07/01 08:42:49;;;;;;;;;0.00;0.00;;;;;20.83;43.33;101600.25;5017447;28;45473;-82
2022/07/01 08:45:15;;;;;;;;;0.33;0.33;;;;;20.69;42.97;101547.09;5017001;28;45761;-83
2022/07/01 08:47:57;;;;;;;;;0.00;0.00;;;;;21.43;41.95;101550.59;5011525;28;45777;-83
2022/07/01 08:50:23;;;;;;;;;0.67;0.00;;;;;22.35;40.43;101572.38;5017395;28;45586;-83
2022/07/01 08:52:49;;;;;;;;;0.00;0.00;;;;;24.08;37.19;101551.53;5017283;28;45509;-83
2022/07/01 08:55:14;;;;;;;;;0.00;0.00;;;;;25.73;35.06;101586.53;5016899;28;46017;-83
2022/07/01 08:57:40;;;;;;;;;0.00;0.00;;;;;26.47;33.85;101549.38;5016870;28;45418;-83
2022/07/01 09:00:07;;;;;;;;;0.00;0.00;;;;;28.73;30.73;101591.94;5014572;28;45521;-85
2022/07/01 09:02:59;;;;;;;;;0.00;0.00;;;;;30.73;28.30;101595.25;5016704;28;45760;-85
2022/07/01 09:05:26;;;;;;;;;0.00;0.00;;;;;32.12;25.30;101587.94;5014094;28;47499;-84
2022/07/01 09:08:03;;;;;;;;;0.00;0.00;;;;;33.49;24.92;101570.78;5016822;28;45362;-82
2022/07/01 09:10:31;;;;;;;;;0.00;0.00;;;;;34.95;22.45;101605.00;5007553;28;45637;-83
2022/07/01 09:12:58;;;;;;;;;0.50;0.00;;;;;35.46;22.14;101568.47;5017085;28;45569;-89
2022/07/01 09:15:26;;;;;;;;;0.00;0.00;;;;;36.57;21.08;101600.19;5016584;28;47156;-90
2022/07/01 09:18:06;;;;;;;;;0.00;0.00;;;;;37.73;20.40;101581.63;5016679;28;45512;-86
2022/07/01 09:20:38;;;;;;;;;0.00;0.00;;;;;37.56;19.84;101604.47;5014120;28;45386;-85
2022/07/01 09:23:07;;;;;;;;;0.00;0.00;;;;;38.84;19.66;101610.47;5017518;28;45387;-83
2022/07/01 09:25:45;;;;;;;;;0.25;0.00;;;;;39.98;18.05;101590.97;5016429;28;46600;-88
2022/07/01 09:28:14;;;;;;;;;0.50;0.50;;;;;41.41;16.60;101629.56;5014961;28;45400;-85
2022/07/01 09:30:42;;;;;;;;;1.00;0.00;;;;;42.26;16.10;101633.22;5016265;28;45726;-86
2022/07/01 09:33:19;;;;;;;;;0.00;0.00;;;;;42.97;15.87;101618.53;5017251;28;45483;-83
2022/07/01 09:35:48;;;;;;;;;0.75;0.00;;;;;43.51;15.33;101638.19;5016221;28;46072;-86
2022/07/01 09:38:15;;;;;;;;;0.00;0.00;;;;;43.90;13.84;101637.97;5016319;28;45379;-90
2022/07/01 09:40:46;;;;;;;;;0.00;0.00;;;;;40.58;16.58;101642.06;5016567;28;45693;-87
2022/07/01 09:43:20;;;;;;;;;0.00;0.00;;;;;42.57;15.05;101637.34;4999177;28;45554;-85
2022/07/01 09:46:11;;;;;;;;;0.00;0.00;;;;;43.75;14.95;101641.50;5015733;28;46246;-82
2022/07/01 09:48:36;;;;;;;;;0.00;0.00;;;;;39.58;16.58;101618.69;5014437;28;45280;-84
2022/07/01 09:51:04;;;;;;;;;0.50;0.00;;;;;38.64;17.60;101630.25;5024642;28;45378;-83
2022/07/01 09:53:29;;;;;;;;;0.00;0.00;;;;;37.00;19.23;101621.03;5019946;28;45413;-84
2022/07/01 09:55:55;;;;;;;;;0.00;0.00;;;;;34.13;21.74;101587.31;5015962;28;45469;-82
2022/07/01 09:58:20;;;;;;;;;4.00;1.33;;;;;33.46;22.55;101621.78;5016383;28;45453;-82
2022/07/01 10:00:46;;;;;;;;;0.00;0.00;;;;;35.89;20.39;101615.28;5015860;28;45595;-84
2022/07/01 10:03:13;;;;;;;;;0.00;0.00;;;;;34.33;20.96;101623.44;5016977;28;45386;-83
2022/07/01 10:05:47;;;;;;;;;0.00;0.00;;;;;36.76;19.25;101617.88;5015971;28;46452;-88
2022/07/01 10:08:40;;;;;;;;;0.75;0.00;;;;;37.56;18.60;101614.75;5015785;28;45425;-84
2022/07/01 10:11:38;;;;;;;;;1.00;0.00;;;;;38.12;17.17;101618.56;5015613;28;45315;-82
2022/07/01 10:14:04;;;;;;;;;0.00;0.00;;;;;35.34;19.76;101635.88;5013067;28;45472;-82
2022/07/01 10:16:31;;;;;;;;;0.00;0.00;;;;;38.32;17.67;101637.84;5014695;28;46174;-84
2022/07/01 10:18:57;;;;;;;;;0.00;0.00;;;;;40.14;16.26;101652.78;5015926;28;45666;-82
2022/07/01 10:21:30;;;;;;;;;0.00;0.00;;;;;41.27;15.01;101636.56;5014965;28;46670;-84
2022/07/01 10:24:13;;;;;;;;;1.33;1.33;;;;;41.31;15.03;101604.19;5015838;28;45560;-84
2022/07/01 10:26:43;;;;;;;;;0.00;0.00;;;;;40.23;15.35;101624.25;5014552;28;46538;-83
2022/07/01 10:29:34;;;;;;;;;0.00;0.00;;;;;38.07;17.30;101618.38;5015448;28;45424;-83
2022/07/01 10:32:27;;;;;;;;;0.00;0.00;;;;;34.97;19.62;101615.88;5012416;28;45623;-81
2022/07/01 10:35:03;;;;;;;;;0.00;0.00;;;;;32.92;22.07;101625.81;5014108;28;45415;-81
2022/07/01 10:37:28;;;;;;;;;0.00;0.00;;;;;31.62;23.47;101625.25;5015565;28;46091;-82
2022/07/01 10:39:57;;;;;;;;;0.00;0.00;;;;;30.47;24.33;101604.66;5015694;28;45440;-81
2022/07/01 10:42:29;;;;;;;;;0.00;0.00;;;;;30.22;24.79;101652.47;5015711;28;45382;-81
2022/07/01 10:45:09;;;;;;;;;0.00;0.00;;;;;31.89;23.16;101597.09;5015419;28;45374;-87
2022/07/01 10:47:36;;;;;;;;;0.50;0.00;;;;;32.44;22.21;101610.69;4996613;28;46088;-91
2022/07/01 10:50:18;;;;;;;;;0.00;0.00;;;;;31.28;23.35;101575.00;5015481;28;45524;-83
2022/07/01 10:53:10;;;;;;;;;0.00;0.00;;;;;31.47;23.37;101590.22;5005412;28;45669;-83
2022/07/01 10:56:00;;;;;;;;;0.00;0.00;;;;;31.72;22.40;101606.53;5012780;28;45535;-85
2022/07/01 10:58:37;;;;;;;;;0.00;0.00;;;;;31.48;22.79;101591.94;5007636;28;46643;-83
2022/07/01 11:01:03;;;;;;;;;0.75;0.00;;;;;31.75;22.99;101619.97;5014800;28;45313;-85
2022/07/01 11:03:35;;;;;;;;;48.75;39.25;;;;;30.92;23.21;101613.25;5018912;28;45676;-81
2022/07/01 11:06:01;;;;;;;;;7.00;6.00;;;;;29.74;25.24;101597.38;5018011;28;45596;-80
2022/07/01 11:08:26;;;;;;;;;1.00;1.00;;;;;29.58;24.67;101617.41;4998703;28;47340;-80
2022/07/01 11:10:57;;;;;;;;;1.50;1.50;;;;;29.11;26.15;101625.41;5015544;28;45584;-81
2022/07/01 11:13:22;;;;;;;;;0.00;0.00;;;;;28.67;26.69;101620.06;5012322;28;45561;-83
2022/07/01 11:15:48;;;;;;;;;5.00;2.25;;;;;28.71;26.87;101626.94;5014591;28;46084;-80
2022/07/01 11:18:16;;;;;;;;;1.00;1.00;;;;;28.53;27.42;101596.84;5015098;28;46233;-80
2022/07/01 11:20:41;;;;;;;;;1.00;1.00;;;;;28.38;27.65;101624.84;5011551;28;45595;-81
2022/07/01 11:23:07;;;;;;;;;1.00;1.00;;;;;28.15;28.17;101619.06;5017427;28;45399;-81
2022/07/01 11:25:32;;;;;;;;;3.33;2.00;;;;;27.94;29.43;101585.69;5018226;28;45436;-83
2022/07/01 11:27:58;;;;;;;;;2.00;2.00;;;;;28.06;29.39;101592.59;5016314;28;46039;-83
2022/07/01 11:30:23;;;;;;;;;0.00;0.00;;;;;28.23;28.93;101588.06;5015100;28;45526;-84
2022/07/01 11:32:55;;;;;;;;;2.25;2.25;;;;;28.75;29.28;101614.59;4996955;28;45441;-84
2022/07/01 11:41:06;;;;;;;;;1.00;1.00;;;;;29.98;27.17;101601.13;4975838;28;45512;-83
2022/07/01 11:43:34;;;;;;;;;0.75;0.75;;;;;30.01;26.70;101587.88;4967354;28;45754;-85
2022/07/01 11:46:01;;;;;;;;;2.75;1.00;;;;;30.11;26.77;101611.56;4969801;28;45498;-81